• Join FlightAware (Why Join?)
  • Login
  • US Flag 
07:07PM EDT


 

Airport Tracker/Info


-or-


 

Live Flight TrackerFlight Track Log ✈ UPS1295 ✈ 12-Nov-2013 ✈ KGSP - KSDF

Flight Track Log - Related Links

Times and Time Zones

All times are in EST time to prevent confusion due to time zone crossing. See the UPS1295 flight status page for this flight to view local times or setup timezone preferences in your user account.

Time Position Orientation Groundspeed Altitude Reporting Facility
EST Latitude Longitude Course Direction KTS MPH feet Rate Location/Type
11:24PM 34.9710 -82.1540 34° Northeast 213 245 6,500  Level FlightAware
11:25PM 34.9980 -82.1310 35° Northeast 236 272 8,100 2,880 Climbing FlightAware
11:25PM 35.0200 -82.1100 38° Northeast 249 287 9,200 1,920 Climbing FlightAware
11:26PM 35.0480 -82.0850 36° Northeast 282 325 9,800 1,080 Climbing FlightAware
11:26PM 35.0960 -82.0420 36° Northeast 300 345 10,500 360 Climbing FlightAware
11:27PM 35.1640 -81.9790 37° Northeast 298 343 10,500  Level FlightAware
11:28PM 35.1910 -81.9590 31° Northeast 292 336 10,500  Level FlightAware
11:28PM 35.2110 -81.9550 North 285 328 10,500  Level FlightAware
11:28PM 35.2480 -81.9710 341° North 280 322 10,500 120 Level FlightAware
11:29PM 35.2960 -82.0280 316° Northwest 290 334 10,700 1,740 Climbing FlightAware
11:30PM 35.3570 -82.0970 317° Northwest 331 381 13,700 3,840 Climbing FlightAware
11:31PM 35.4200 -82.1730 315° West 345 397 18,000 4,200 Climbing FlightAware
11:32PM 35.4837 -82.2489 316° Northwest 356 410 21,500 3,240 Climbing FlightAware ADS-B
11:33PM 35.5200 -82.2934 315° West 374 430 22,600 1,800 Climbing FlightAware ADS-B
11:33PM 35.5519 -82.3313 316° Northwest 378 435 23,200 3,000 Climbing FlightAware ADS-B
11:33PM 35.5891 -82.3751 316° Northwest 367 422 25,400 3,780 Climbing FlightAware ADS-B
11:34PM 35.6257 -82.4193 316° Northwest 361 415 27,000 2,220 Climbing FlightAware ADS-B
11:35PM 35.6608 -82.4622 315° West 350 403 27,700 840 Climbing FlightAware ADS-B
11:35PM 35.6958 -82.5042 316° Northwest 345 397 27,900 240 Climbing FlightAware ADS-B
11:36PM 35.7320 -82.5482 315° West 345 397 28,000 60 Climbing FlightAware ADS-B
11:36PM 35.7841 -82.6118 315° West 346 398 28,000  Level FlightAware ADS-B
11:37PM 35.8241 -82.6602 316° Northwest 349 402 28,000  Level FlightAware ADS-B
11:37PM 35.8620 -82.7061 316° Northwest 396 456 28,000  Level FlightAware ADS-B
11:38PM 35.9029 -82.7556 316° Northwest 406 467 28,000  Level FlightAware ADS-B
11:38PM 35.9436 -82.8048 316° Northwest 410 472 28,000  Level FlightAware ADS-B
11:39PM 35.9846 -82.8547 315° West 414 476 28,000  Level FlightAware ADS-B
11:39PM 36.0265 -82.9057 315° West 419 482 28,000  Level FlightAware ADS-B
11:40PM 36.0681 -82.9563 315° West 420 483 28,000  Level FlightAware ADS-B
11:40PM 36.1115 -83.0094 315° West 422 486 28,000  Level FlightAware ADS-B
11:41PM 36.1538 -83.0612 315° West 425 489 28,000  Level FlightAware ADS-B
11:41PM 36.1922 -83.1082 315° West 427 491 28,000  Level FlightAware ADS-B
11:42PM 36.2346 -83.1603 315° West 429 494 28,000  Level FlightAware ADS-B
11:42PM 36.2779 -83.2134 315° West 430 495 28,000  Level FlightAware ADS-B
11:43PM 36.3206 -83.2660 315° West 431 496 28,000  Level FlightAware ADS-B
11:43PM 36.3644 -83.3203 315° West 432 497 28,000  Level FlightAware ADS-B
11:44PM 36.4094 -83.3757 315° West 431 496 28,000  Level FlightAware ADS-B
11:44PM 36.4521 -83.4284 315° West 431 496 28,000  Level FlightAware ADS-B
11:45PM 36.4945 -83.4810 315° West 429 494 28,000  Level FlightAware ADS-B
11:45PM 36.5366 -83.5334 315° West 428 493 28,000  Level FlightAware ADS-B
11:46PM 36.5793 -83.5864 315° West 426 490 28,000  Level FlightAware ADS-B
11:46PM 36.6232 -83.6411 315° West 424 488 28,000  Level FlightAware ADS-B
11:47PM 36.6651 -83.6934 315° West 423 487 28,000  Level FlightAware ADS-B
11:48PM 36.7186 -83.7602 315° West 422 486 28,000  Level FlightAware ADS-B
11:48PM 36.7675 -83.8214 315° West 422 486 28,000  Level FlightAware ADS-B
11:49PM 36.8090 -83.8735 315° West 421 484 28,000  Level FlightAware ADS-B
11:49PM 36.8518 -83.9273 315° West 421 484 28,000  Level FlightAware ADS-B
11:50PM 36.9164 -84.0088 315° West 421 484 28,000  Level FlightAware ADS-B
11:51PM 36.9840 -84.0940 315° West 422 486 28,000  Level FlightAware ADS-B
11:51PM 37.0276 -84.1491 315° West 423 487 28,000  Level FlightAware ADS-B
11:52PM 37.0930 -84.2322 315° West 423 487 28,000 -780 Level FlightAware ADS-B
11:53PM 37.1518 -84.3072 315° West 414 476 26,900 -2,580 Descending FlightAware ADS-B
11:54PM 37.2128 -84.3847 315° West 409 471 24,200 -3,360 Descending FlightAware ADS-B
11:54PM 37.2529 -84.4357 315° West 402 463 22,600 -3,060 Descending FlightAware ADS-B
11:55PM 37.2917 -84.4855 314° West 391 450 21,100 -2,820 Descending FlightAware ADS-B
11:55PM 37.3293 -84.5338 314° West 379 436 19,800 -2,700 Descending FlightAware ADS-B
11:56PM 37.3663 -84.5813 314° West 368 423 18,400 -2,760 Descending FlightAware ADS-B
11:56PM 37.4240 -84.6550 315° West 356 410 16,200 -2,820 Descending FlightAware
11:57PM 37.4830 -84.7320 314° West 320 368 13,700 -3,060 Descending FlightAware
11:58PM 37.5400 -84.8050 315° West 309 356 10,600 -2,940 Descending FlightAware
11:59PM 37.5660 -84.8390 314° West 281 323 9,600 -1,740 Descending FlightAware
11:59PM 37.5890 -84.8690 314° West 257 296 9,000 -1,380 Descending FlightAware
12:00AM 37.6210 -84.9100 315° West 251 289 8,100 -1,500 Descending FlightAware
12:00AM 37.6440 -84.9400 314° West 250 288 7,400 -840 Descending FlightAware
12:01AM 37.6700 -84.9740 314° West 255 293 7,300 -120 Descending FlightAware
12:01AM 37.6960 -85.0100 312° West 254 292 7,300  Level FlightAware
12:02AM 37.7140 -85.0360 311° West 255 293 7,300 -300 Level FlightAware
12:02AM 37.7420 -85.0760 312° West 254 292 7,000 -600 Descending FlightAware
12:03AM 37.7570 -85.1120 298° West 258 297 6,700 -660 Descending FlightAware
12:03AM 37.7720 -85.1500 297° West 257 296 6,400 -720 Descending FlightAware
12:04AM 37.7850 -85.1820 297° West 255 293 6,100 -780 Descending FlightAware
12:04AM 37.7980 -85.2150 297° West 258 297 5,800 -660 Descending FlightAware
12:05AM 37.8110 -85.2460 298° West 259 298 5,600 -660 Descending FlightAware
12:05AM 37.8220 -85.2760 295° West 256 295 5,300 -720 Descending FlightAware
12:06AM 37.8420 -85.3260 297° West 254 292 4,900 -600 Descending FlightAware
12:06AM 37.8550 -85.3570 298° West 257 296 4,700 -600 Descending FlightAware
12:06AM 37.8700 -85.3980 295° West 256 295 4,400 -600 Descending FlightAware
12:07AM 37.8720 -85.4110 281° West 259 298 4,300 -720 Descending FlightAware
12:07AM 37.8620 -85.4630 256° West 262 302 3,900 -780 Descending FlightAware
12:08AM 37.8500 -85.5180 255° West 260 299 3,400 -900 Descending FlightAware
12:08AM 37.8420 -85.5610 257° West 259 298 2,900 -1,020 Descending FlightAware
12:09AM 37.8440 -85.6040 273° West 240 276 2,400 -600 Descending FlightAware
12:09AM 37.8650 -85.6200 329° Northwest 212 244 2,400 -120 Level FlightAware
12:10AM 37.8850 -85.6300 338° Northwest 193 222 2,300 -120 Descending FlightAware
12:10AM 37.9130 -85.6390 346° North 161 185 2,300  Level FlightAware
12:11AM 37.9280 -85.6430 348° North 162 186 2,300  Level FlightAware
12:11AM 37.9540 -85.6520 345° North 161 185 2,300  Level FlightAware
12:12AM 37.9760 -85.6600 344° North 161 185 2,300  Level FlightAware
12:12AM 37.9970 -85.6660 347° North 163 188 2,300  Level FlightAware
12:12AM 38.0140 -85.6720 344° North 161 185 2,300 120 Level FlightAware
12:13AM 38.0280 -85.6770 344° North 161 185 2,400 -120 Climbing FlightAware
12:14AM 38.0590 -85.6880 344° North 160 184 2,200 -600 Descending FlightAware
12:14AM 38.0800 -85.6950 345° North 145 167 1,700 -900 Descending FlightAware
12:15AM 38.0990 -85.7010 346° North 123 142 1,300 -720 Descending FlightAware
12:15AM 38.1090 -85.7050 343° North 116 133 1,100 -660 Descending FlightAware
12:15AM 38.1240 -85.7100 345° North 116 133 800 -780 Descending FlightAware
12:16AM 38.1350 -85.7130 348° North 119 137 500 -720 Descending FlightAware
12:16AM 38.1520 -85.7190 344° North 124 143 200 -600 Descending FlightAware
12:17AM 38.1660 -85.7240 344° North 130 150 -540 Descending FlightAware